FARRENBERG (FAR1) Information & Weather

WARNING: the data listed below is for informational purposes only and should be confirmed from official sources. Data presented here on this page may be out of date, incomplete or wrong.

Name: FARRENBERG
Identifier: FAR1

Coord: 48.3855N 9.0767E
Var: 1°E

Country: Germany
Municipality: UNKNOWN,
Time Zone: (GMT+01:00) Europe/Berlin

Station Elevation: 2605 ft
Pressure Altitude: 2519 ft
Density Altitude: 3626 ft
Freezing Level: 11696 ft

Civil Twilight
Morning: 03:18 UTC  (04:18 local)
Evening: 19:41 UTC  (20:41 local)

METAR EDDS 301050Z 33008KT 270V360 9999 FEW046 BKN080 18/08 Q1016 NOSIG= [toggle past 4 hours]
(Station: EDDS; distance: 19.2 nm)

TAF EDDS 301100Z 3012/3112 30007KT 9999 SCT040 BECMG 3020/3023 VRB03KT BECMG 3107/3110 05006KT=
(Station: EDDS; distance: 19.2 nm)

Upper Winds

Source   Valid 375 1000 2000 2500 3000 5000 6000 8000 10000 12000 14000 16000 18000 21000 24000 26000 30000 34000 39000 44000 52000 60000
GFS 3012/3015 2803+21 2803+20 2803+18 2803+17 2803+14 2704+10 2706+05 2609+01 2524-01 2431-03 2434-07 2438-11 2442-15 2548-20 2558-26 2579-32 2499-39 2495-47 2485-50 2567-49 2535-53 2319-54

SIGMET/AIRMET

None within 25nm.

PIREP

None within 25nm.

NOTAM

None within 25nm.

Runway Data

Frequencies

Nearby Airports

Nearby Navaids